This is the latest recevied weather packets stored in our database for station/object W7MB. If no packets are shown the sender has not sent any weather packets the latest 10 day(s).
| Time | Temp. | Humidity | Pressure | Rain* | Wind** | Luminosity | Snow |
|---|---|---|---|---|---|---|---|
| 1778091843 | 23.33° C | 47% | 1014 hPa | 0 mm | - | - | - |
| 1778091484 | 22.78° C | 46% | 1014 hPa | 0 mm | - | - | - |
| 1778091123 | 22.22° C | 48% | 1013.8 hPa | 0 mm | - | - | - |
| 1778090763 | 21.67° C | 49% | 1013.9 hPa | 0 mm | - | - | - |
| 1778090404 | 21.11° C | 50% | 1013.9 hPa | 0 mm | - | - | - |
| 1778090043 | 21.11° C | 50% | 1014 hPa | 0 mm | - | - | - |
| 1778089683 | 21.11° C | 49% | 1014 hPa | 0 mm | - | - | - |
| 1778089323 | 21.11° C | 50% | 1014.1 hPa | 0 mm | - | - | - |
| 1778088963 | 20.56° C | 52% | 1014.1 hPa | 0 mm | - | - | - |
| 1778088603 | 20.56° C | 50% | 1014.2 hPa | 0 mm | - | - | - |
| 1778088243 | 20.56° C | 51% | 1014.2 hPa | 0 mm | - | - | - |
| 1778087885 | 20° C | 55% | 1014.3 hPa | 0 mm | - | - | - |
| 1778087523 | 18.89° C | 59% | 1014.3 hPa | 0 mm | - | - | - |
| 1778087163 | 18.89° C | 57% | 1014.4 hPa | 0 mm | - | - | - |
| 1778086804 | 18.33° C | 59% | 1014.5 hPa | 0 mm | - | - | - |
| 1778086443 | 17.78° C | 61% | 1014.4 hPa | 0 mm | - | - | - |
| 1778086083 | 17.78° C | 57% | 1014.5 hPa | 0 mm | - | - | - |
| 1778085723 | 17.22° C | 59% | 1014.5 hPa | 0 mm | - | - | - |
| 1778085363 | 17.22° C | 61% | 1014.5 hPa | 0 mm | - | - | - |
| 1778085003 | 16.67° C | 66% | 1014.5 hPa | 0 mm | - | - | - |
| 1778084643 | 16.11° C | 71% | 1014.6 hPa | 0 mm | - | - | - |
| 1778083924 | 15° C | 74% | 1014.7 hPa | 0 mm | - | - | - |
| 1778083563 | 14.44° C | 76% | 1014.7 hPa | 0 mm | - | - | - |
| 1778083204 | 13.89° C | 77% | 1014.6 hPa | 0 mm | - | - | - |
| 1778082843 | 13.33° C | 80% | 1014.7 hPa | 0 mm | - | - | - |
* Rain latest hour (hover to see other rain measurements)
** Current wind speed in m/s (hover to see current wind gust speed)